Bryantville, Massachusetts
Current Conditions -  °F | °C
As of 5:52 AM on Sunday 26 Oct 2014 (Local Time) from KPYM Reporting Station
Clear Clear  
Wind Chill: 52°   Ceiling: Unl
Heat Index: 52°   Visibility: 10mi
Dew Point: 45°   Wind: 6mph
Humidity: 77%   Direction: 250°WSW
Pressure: 29.47"   Gusts: NA
Location:  42.04°N, 70.84°W
Report Text: KPYM 260952Z AUTO 25005KT 10SM CLR 11/07 A2947 RMK AO2 SLP978 T01110072
Loading
Personal Weather Stations






























Interactive Weather Map
Tropical Storm Tracking
New forecast layout! Learn more

10-Day Weather Forecast

Advertisements
Track Severe Weather on mobile